Time;durP1;ratioP1;P1;durP2;ratioP2;P2;SDS_P1;SDS_P2;PMS_P1;PMS_P2;Temp;Humidity;BMP_temperature;BMP_pressure;BME280_temperature;BME280_humidity;BME280_pressure;Samples;Min_cycle;Max_cycle;Signal;HPM_P1;HPM_P2
2022/04/12 00:00:25;;;;;;;15.63;13.63;;;7.70;99.90;;;;;;4807036;29;20061;-65
2022/04/12 00:02:51;;;;;;;17.42;13.07;;;7.60;99.90;;;;;;4823423;29;20089;-64
2022/04/12 00:05:16;;;;;;;18.05;14.00;;;7.60;99.90;;;;;;4808283;29;20054;-64
2022/04/12 00:07:46;;;;;;;16.15;13.02;;;7.60;99.90;;;;;;4822917;29;20054;-65
2022/04/12 00:10:13;;;;;;;16.60;13.55;;;7.60;99.90;;;;;;4804836;29;20126;-65
2022/04/12 00:12:39;;;;;;;16.17;13.23;;;7.50;99.90;;;;;;4806364;29;20061;-64
2022/04/12 00:15:06;;;;;;;16.25;13.90;;;7.50;99.90;;;;;;4807689;29;20063;-64
2022/04/12 00:20:18;;;;;;;16.58;13.60;;;7.40;99.90;;;;;;4803354;29;20050;-65
2022/04/12 00:22:44;;;;;;;18.48;13.68;;;7.40;99.90;;;;;;4807698;29;20050;-64
2022/04/12 00:25:10;;;;;;;15.43;13.10;;;7.40;99.90;;;;;;4823062;29;20065;-64
2022/04/12 00:27:37;;;;;;;18.10;14.00;;;7.40;99.90;;;;;;4820586;29;20102;-64
2022/04/12 00:30:09;;;;;;;16.67;13.50;;;7.40;99.90;;;;;;4802736;29;20500;-64
2022/04/12 00:32:35;;;;;;;18.38;13.55;;;7.40;99.90;;;;;;4822484;29;20065;-65
2022/04/12 00:35:02;;;;;;;15.40;12.82;;;7.40;99.90;;;;;;4805383;29;20055;-66
2022/04/12 00:37:28;;;;;;;17.90;14.13;;;7.30;99.90;;;;;;4805166;29;20441;-64
2022/04/12 00:39:54;;;;;;;17.42;13.80;;;7.30;99.90;;;;;;4819129;29;20084;-65
2022/04/12 00:42:20;;;;;;;19.70;13.85;;;7.30;99.90;;;;;;4805396;29;20056;-64
2022/04/12 00:44:46;;;;;;;15.45;13.20;;;7.20;99.90;;;;;;4805042;29;20094;-65
2022/04/12 00:47:13;;;;;;;14.90;13.30;;;7.20;99.90;;;;;;4807181;29;20073;-64
2022/04/12 00:49:39;;;;;;;15.60;12.82;;;7.20;99.90;;;;;;4822810;29;20056;-66
2022/04/12 00:52:07;;;;;;;17.02;12.57;;;7.10;99.90;;;;;;4822365;29;20070;-65
2022/04/12 00:54:37;;;;;;;16.83;13.35;;;7.10;99.90;;;;;;4793088;29;20062;-64
2022/04/12 00:57:05;;;;;;;14.48;12.07;;;7.10;99.90;;;;;;4808959;29;20497;-64
2022/04/12 00:59:35;;;;;;;16.13;12.65;;;7.10;99.90;;;;;;4806317;29;20058;-64
2022/04/12 01:02:06;;;;;;;17.13;12.98;;;7.10;99.90;;;;;;4807357;29;20058;-66
2022/04/12 01:04:32;;;;;;;13.43;11.65;;;7.00;99.90;;;;;;4807436;29;20125;-65
2022/04/12 01:06:59;;;;;;;15.68;12.88;;;7.00;99.90;;;;;;4822932;29;20104;-64
2022/04/12 01:09:28;;;;;;;15.02;12.63;;;7.00;99.90;;;;;;4815177;29;20489;-65
2022/04/12 01:11:55;;;;;;;15.55;12.45;;;6.90;99.90;;;;;;4806646;29;20110;-64
2022/04/12 01:14:22;;;;;;;14.60;12.75;;;6.90;99.90;;;;;;4824035;29;20054;-65
2022/04/12 01:16:48;;;;;;;15.35;12.93;;;6.90;99.90;;;;;;4807397;29;20464;-65
2022/04/12 01:19:15;;;;;;;16.15;12.23;;;6.90;99.90;;;;;;4822202;29;20062;-65
2022/04/12 01:22:00;;;;;;;17.00;12.27;;;6.90;99.90;;;;;;4807911;29;20373;-64
2022/04/12 01:24:28;;;;;;;16.30;11.77;;;6.90;99.90;;;;;;4823428;29;20062;-64
2022/04/12 01:26:53;;;;;;;16.98;12.18;;;6.90;99.90;;;;;;4806615;29;20077;-66
2022/04/12 01:29:19;;;;;;;15.00;11.70;;;6.90;99.90;;;;;;4821655;29;20050;-66
2022/04/12 01:31:44;;;;;;;15.23;11.82;;;6.80;99.90;;;;;;4802939;29;20118;-64
2022/04/12 01:34:10;;;;;;;15.18;11.77;;;6.80;99.90;;;;;;4816991;29;20058;-64
2022/04/12 01:36:35;;;;;;;15.80;12.05;;;6.80;99.90;;;;;;4822123;29;20419;-65
2022/04/12 01:39:02;;;;;;;16.10;12.40;;;6.70;99.90;;;;;;4816749;29;20133;-64
2022/04/12 01:41:29;;;;;;;16.90;12.40;;;6.70;99.90;;;;;;4822106;29;20057;-64
2022/04/12 01:43:54;;;;;;;16.35;13.00;;;6.60;99.90;;;;;;4806746;29;20054;-65
2022/04/12 01:46:23;;;;;;;16.55;12.00;;;6.60;99.90;;;;;;4822408;29;20057;-65
2022/04/12 01:48:49;;;;;;;13.90;12.00;;;6.60;99.90;;;;;;4816864;29;20062;-65
2022/04/12 01:51:16;;;;;;;17.08;12.00;;;6.70;99.90;;;;;;4810387;29;20058;-65
2022/04/12 01:53:42;;;;;;;18.67;12.35;;;6.60;99.90;;;;;;4822186;29;20065;-64
2022/04/12 01:56:07;;;;;;;14.40;11.40;;;6.50;99.90;;;;;;4806909;29;20059;-66
2022/04/12 01:58:34;;;;;;;14.38;11.45;;;6.50;99.90;;;;;;4808299;29;20115;-64
2022/04/12 02:01:00;;;;;;;12.98;11.57;;;6.50;99.90;;;;;;4817651;29;20097;-64
2022/04/12 02:03:25;;;;;;;14.10;11.57;;;6.40;99.90;;;;;;4826518;29;20089;-66
2022/04/12 02:05:51;;;;;;;14.43;11.95;;;6.40;99.90;;;;;;4825764;29;20065;-65
2022/04/12 02:08:20;;;;;;;16.45;11.75;;;6.40;99.90;;;;;;4823930;29;20080;-64
2022/04/12 02:10:46;;;;;;;14.85;12.45;;;6.30;99.90;;;;;;4807230;29;20073;-64
2022/04/12 02:13:11;;;;;;;15.30;11.80;;;6.30;99.90;;;;;;4808732;29;20054;-65
2022/04/12 02:15:37;;;;;;;18.15;12.77;;;6.30;99.90;;;;;;4825140;29;20137;-66
2022/04/12 02:18:03;;;;;;;12.82;11.45;;;6.20;99.90;;;;;;4820567;29;20062;-64
2022/04/12 02:20:28;;;;;;;16.50;12.48;;;6.20;99.90;;;;;;4809498;29;20053;-65
2022/04/12 02:22:54;;;;;;;14.07;11.98;;;6.20;99.90;;;;;;4809815;29;20138;-65
2022/04/12 02:25:19;;;;;;;16.08;12.60;;;6.30;99.90;;;;;;4824667;29;20148;-64
2022/04/12 02:27:45;;;;;;;14.70;11.85;;;6.20;99.90;;;;;;4809494;29;20050;-65
2022/04/12 02:30:15;;;;;;;15.07;12.15;;;6.30;99.90;;;;;;4809768;29;20119;-65
2022/04/12 02:32:41;;;;;;;15.88;12.27;;;6.20;99.90;;;;;;4810118;29;20050;-64
2022/04/12 02:35:07;;;;;;;14.27;11.75;;;6.20;99.90;;;;;;4808672;29;20507;-63
2022/04/12 02:37:33;;;;;;;14.05;12.00;;;6.00;99.90;;;;;;4806154;29;20138;-65
2022/04/12 02:39:59;;;;;;;16.50;12.93;;;6.00;99.90;;;;;;4807154;29;20197;-64
2022/04/12 02:42:24;;;;;;;15.75;11.82;;;6.00;99.90;;;;;;4805964;29;20055;-64
2022/04/12 02:44:50;;;;;;;14.45;11.27;;;6.00;99.90;;;;;;4806463;29;20063;-64
2022/04/12 02:47:15;;;;;;;14.32;11.77;;;5.90;99.90;;;;;;4806551;29;20135;-64
2022/04/12 02:49:41;;;;;;;17.23;12.20;;;5.90;99.90;;;;;;4805678;29;20058;-67
2022/04/12 02:52:08;;;;;;;15.40;12.40;;;5.90;99.90;;;;;;4823941;29;20125;-64
2022/04/12 02:54:34;;;;;;;15.40;11.93;;;5.80;99.90;;;;;;4819133;29;20131;-65
2022/04/12 02:57:00;;;;;;;15.32;12.27;;;5.80;99.90;;;;;;4808395;29;20058;-65
2022/04/12 02:59:26;;;;;;;16.30;12.30;;;5.70;99.90;;;;;;4823329;29;20377;-64
2022/04/12 03:01:51;;;;;;;16.58;11.80;;;5.70;99.90;;;;;;4823653;29;20055;-66
2022/04/12 03:04:17;;;;;;;14.05;11.63;;;5.70;99.90;;;;;;4810815;29;20046;-64
2022/04/12 03:06:43;;;;;;;15.23;12.15;;;5.70;99.90;;;;;;4807323;29;20119;-65
2022/04/12 03:09:08;;;;;;;15.73;12.73;;;5.70;99.90;;;;;;4807250;29;20137;-64
2022/04/12 03:11:35;;;;;;;15.88;11.55;;;5.60;99.90;;;;;;4805787;29;20078;-64
2022/04/12 03:14:01;;;;;;;13.52;11.57;;;5.60;99.90;;;;;;4808462;29;20058;-64
2022/04/12 03:16:27;;;;;;;14.65;11.68;;;5.60;99.90;;;;;;4821379;29;20050;-65
2022/04/12 03:18:52;;;;;;;15.55;11.90;;;5.60;99.90;;;;;;4822550;29;20300;-65
2022/04/12 03:21:18;;;;;;;16.50;11.60;;;5.50;99.90;;;;;;4820658;29;20150;-66
2022/04/12 03:23:43;;;;;;;14.27;11.77;;;5.50;99.90;;;;;;4805495;29;20073;-65
2022/04/12 03:26:09;;;;;;;15.75;12.32;;;5.50;99.90;;;;;;4820684;29;20110;-65
2022/04/12 03:28:35;;;;;;;14.25;10.80;;;5.60;99.90;;;;;;4806473;29;20070;-64
2022/04/12 03:31:00;;;;;;;16.52;11.63;;;5.50;99.90;;;;;;4821803;29;20054;-64
2022/04/12 03:33:26;;;;;;;15.35;11.82;;;5.60;99.90;;;;;;4819150;29;20050;-64
2022/04/12 03:35:52;;;;;;;16.08;12.00;;;5.60;99.90;;;;;;4820970;29;20116;-66
2022/04/12 03:38:17;;;;;;;14.13;12.07;;;5.60;99.90;;;;;;4805581;29;20062;-64
2022/04/12 03:40:46;;;;;;;15.15;11.95;;;5.60;99.90;;;;;;4807000;29;20151;-65
2022/04/12 03:43:11;;;;;;;14.35;12.18;;;5.70;99.90;;;;;;4807837;29;20464;-65
2022/04/12 03:45:37;;;;;;;23.02;13.13;;;5.70;99.90;;;;;;4822139;29;20050;-64
2022/04/12 03:48:03;;;;;;;14.55;11.45;;;5.70;99.90;;;;;;4804976;29;20058;-64
2022/04/12 03:50:28;;;;;;;14.05;11.30;;;5.70;99.90;;;;;;4821076;29;20237;-64
2022/04/12 03:52:55;;;;;;;15.82;11.30;;;5.80;99.90;;;;;;4822137;29;20063;-65
2022/04/12 03:55:35;;;;;;;15.25;11.90;;;5.70;99.90;;;;;;4808443;29;20054;-64
2022/04/12 03:58:03;;;;;;;13.27;10.52;;;5.70;99.90;;;;;;4807424;29;20054;-65
2022/04/12 04:00:29;;;;;;;13.93;11.23;;;5.70;99.90;;;;;;4804863;29;20047;-65
2022/04/12 04:02:56;;;;;;;15.75;12.05;;;5.70;99.90;;;;;;4819998;29;20401;-66
2022/04/12 04:05:25;;;;;;;14.55;11.85;;;5.70;99.90;;;;;;4806067;29;20382;-65
2022/04/12 04:07:51;;;;;;;17.65;11.70;;;5.70;99.90;;;;;;4820797;29;20126;-63
2022/04/12 04:10:17;;;;;;;15.73;12.07;;;5.70;99.90;;;;;;4804716;29;20552;-66
2022/04/12 04:12:43;;;;;;;14.50;11.60;;;5.70;99.90;;;;;;4819144;29;20075;-65
2022/04/12 04:15:12;;;;;;;14.65;11.50;;;5.70;99.90;;;;;;4823762;29;20054;-65
2022/04/12 04:17:43;;;;;;;13.85;11.18;;;5.70;99.90;;;;;;4822815;29;20488;-64
2022/04/12 04:20:13;;;;;;;14.02;11.32;;;5.70;99.90;;;;;;4801134;29;20054;-64
2022/04/12 04:22:40;;;;;;;14.40;11.70;;;5.70;99.90;;;;;;4804105;29;20054;-65
2022/04/12 04:25:10;;;;;;;13.40;11.23;;;5.70;99.90;;;;;;4819880;29;20065;-66
2022/04/12 04:27:36;;;;;;;15.70;11.55;;;5.70;99.90;;;;;;4822696;29;20472;-66
2022/04/12 04:30:04;;;;;;;14.73;11.23;;;5.70;99.90;;;;;;4821897;29;20096;-64
2022/04/12 04:32:30;;;;;;;14.00;11.50;;;5.70;99.90;;;;;;4823990;29;20102;-65
2022/04/12 04:34:56;;;;;;;17.10;11.88;;;5.70;99.90;;;;;;4822987;29;20416;-65
2022/04/12 04:37:22;;;;;;;14.52;11.68;;;5.70;99.90;;;;;;4823939;29;20054;-65
2022/04/12 04:39:48;;;;;;;14.15;11.55;;;5.60;99.90;;;;;;4824305;29;20453;-64
2022/04/12 04:42:14;;;;;;;15.35;10.60;;;5.60;99.90;;;;;;4823918;29;20050;-65
2022/04/12 04:44:39;;;;;;;15.85;11.75;;;5.60;99.90;;;;;;4807098;29;20057;-65
2022/04/12 04:47:05;;;;;;;15.55;11.57;;;5.60;99.90;;;;;;4807657;29;20057;-66
2022/04/12 04:49:31;;;;;;;13.18;10.90;;;5.60;99.90;;;;;;4806994;29;20054;-65
2022/04/12 04:51:56;;;;;;;16.85;11.63;;;5.60;99.90;;;;;;4807265;29;20057;-66
2022/04/12 04:54:22;;;;;;;13.80;10.82;;;5.60;99.90;;;;;;4807019;29;20161;-66
2022/04/12 04:56:47;;;;;;;13.07;11.50;;;5.60;99.90;;;;;;4807897;29;20176;-64
2022/04/12 04:59:13;;;;;;;16.27;11.63;;;5.60;99.90;;;;;;4822928;29;20046;-65
2022/04/12 05:01:39;;;;;;;14.65;10.73;;;5.60;99.90;;;;;;4821982;29;20495;-65
2022/04/12 05:04:04;;;;;;;15.07;11.65;;;5.60;99.90;;;;;;4822954;29;20054;-66
2022/04/12 05:06:30;;;;;;;14.43;11.32;;;5.50;99.90;;;;;;4818302;29;20420;-64
2022/04/12 05:08:55;;;;;;;15.18;11.02;;;5.50;99.90;;;;;;4822499;29;20488;-66
2022/04/12 05:11:21;;;;;;;17.88;11.60;;;5.50;99.90;;;;;;4822447;29;20050;-64
2022/04/12 05:13:47;;;;;;;16.15;11.48;;;5.50;99.90;;;;;;4806988;29;20076;-66
2022/04/12 05:16:12;;;;;;;15.65;11.18;;;5.50;99.90;;;;;;4813483;29;20059;-64
2022/04/12 05:18:38;;;;;;;14.60;11.35;;;5.50;99.90;;;;;;4823362;29;20062;-66
2022/04/12 05:21:03;;;;;;;12.73;11.43;;;5.50;99.90;;;;;;4823706;29;20063;-64
2022/04/12 05:23:29;;;;;;;14.77;10.77;;;5.60;99.90;;;;;;4824441;29;20114;-65
2022/04/12 05:25:55;;;;;;;14.32;11.98;;;5.60;99.90;;;;;;4826596;29;20133;-66
2022/04/12 05:28:39;;;;;;;15.02;11.65;;;5.60;99.90;;;;;;4824771;29;20130;-64
2022/04/12 05:31:04;;;;;;;15.18;11.45;;;5.70;99.90;;;;;;4810916;29;20551;-66
2022/04/12 05:33:30;;;;;;;14.73;10.50;;;5.80;99.90;;;;;;4812197;29;20408;-65
2022/04/12 05:35:55;;;;;;;16.42;11.82;;;6.00;99.90;;;;;;4811380;29;20058;-64
2022/04/12 05:38:21;;;;;;;15.15;11.32;;;6.00;99.90;;;;;;4826007;29;20500;-63
2022/04/12 05:40:47;;;;;;;15.27;11.02;;;6.20;99.90;;;;;;4809778;29;20485;-64
2022/04/12 05:43:12;;;;;;;13.77;11.27;;;6.30;99.90;;;;;;4809141;29;20062;-65
2022/04/12 05:45:38;;;;;;;13.55;11.38;;;6.50;99.90;;;;;;4810222;29;20137;-65
2022/04/12 05:48:04;;;;;;;16.05;11.57;;;6.80;99.90;;;;;;4809430;29;20496;-64
2022/04/12 05:50:30;;;;;;;14.35;12.00;;;7.10;99.90;;;;;;4810256;29;20462;-64
2022/04/12 05:52:57;;;;;;;13.23;10.00;;;7.40;99.90;;;;;;4825904;29;20051;-64
2022/04/12 05:55:25;;;;;;;16.55;11.73;;;7.60;99.90;;;;;;4824353;29;20062;-64
2022/04/12 05:58:09;;;;;;;13.68;11.82;;;7.60;99.90;;;;;;4823119;29;20492;-65
2022/04/12 06:00:35;;;;;;;15.88;10.80;;;7.50;99.90;;;;;;4825326;29;20128;-65
2022/04/12 06:03:02;;;;;;;13.63;10.55;;;7.50;99.90;;;;;;4826007;29;20058;-65
2022/04/12 06:05:30;;;;;;;14.18;11.05;;;7.50;99.90;;;;;;4826955;29;20473;-65
2022/04/12 06:07:56;;;;;;;12.95;10.20;;;7.40;99.90;;;;;;4808454;29;20054;-66
2022/04/12 06:10:22;;;;;;;15.63;10.38;;;7.50;99.90;;;;;;4807979;29;20458;-66
2022/04/12 06:12:50;;;;;;;12.27;10.45;;;7.50;99.90;;;;;;4825835;29;20062;-64
2022/04/12 06:15:15;;;;;;;16.45;11.63;;;7.60;99.90;;;;;;4809968;29;20147;-66
2022/04/12 06:17:41;;;;;;;17.85;11.35;;;7.60;99.90;;;;;;4826531;29;20089;-65
2022/04/12 06:20:09;;;;;;;13.85;10.40;;;7.70;99.90;;;;;;4809168;29;20043;-64
2022/04/12 06:22:35;;;;;;;13.55;9.80;;;7.80;99.90;;;;;;4810145;29;20492;-66
2022/04/12 06:25:01;;;;;;;14.88;10.57;;;7.80;99.90;;;;;;4809938;29;20058;-64
2022/04/12 06:27:40;;;;;;;13.82;10.60;;;7.90;99.90;;;;;;4809309;29;20496;-64
2022/04/12 06:30:17;;;;;;;12.18;10.55;;;8.00;99.90;;;;;;4825770;29;20092;-66
2022/04/12 06:32:44;;;;;;;12.15;10.57;;;8.00;99.90;;;;;;4809135;29;20174;-66
2022/04/12 06:35:11;;;;;;;12.55;10.40;;;8.00;99.90;;;;;;4824571;29;20400;-65
2022/04/12 06:37:39;;;;;;;14.10;10.40;;;8.10;99.90;;;;;;4826106;29;20069;-65
2022/04/12 06:40:06;;;;;;;12.27;10.05;;;8.20;99.90;;;;;;4825213;29;20196;-66
2022/04/12 06:42:32;;;;;;;14.90;10.60;;;8.20;99.90;;;;;;4808610;29;20204;-64
2022/04/12 06:44:58;;;;;;;15.50;10.23;;;8.30;99.90;;;;;;4821980;29;20145;-66
2022/04/12 06:47:24;;;;;;;13.48;10.23;;;8.30;99.90;;;;;;4823903;29;20138;-64
2022/04/12 06:49:50;;;;;;;13.15;10.52;;;8.40;99.90;;;;;;4809534;29;20160;-66
2022/04/12 06:52:18;;;;;;;12.77;11.07;;;8.30;99.90;;;;;;4825567;29;20476;-65
2022/04/12 06:54:44;;;;;;;13.07;10.23;;;8.40;99.90;;;;;;4808951;29;20069;-65
2022/04/12 06:57:10;;;;;;;12.00;10.05;;;8.40;99.90;;;;;;4808013;29;20055;-67
2022/04/12 06:59:35;;;;;;;13.93;10.48;;;8.50;99.90;;;;;;4824760;29;20086;-65
2022/04/12 07:02:01;;;;;;;14.27;10.15;;;8.50;99.90;;;;;;4808710;29;20058;-67
2022/04/12 07:04:28;;;;;;;12.82;10.15;;;8.50;99.90;;;;;;4808725;29;20050;-66
2022/04/12 07:06:54;;;;;;;13.55;10.52;;;8.50;99.90;;;;;;4809366;29;20066;-67
2022/04/12 07:09:23;;;;;;;16.10;10.18;;;8.60;99.90;;;;;;4826001;29;20107;-66
2022/04/12 07:11:51;;;;;;;13.00;10.02;;;8.60;99.90;;;;;;4808358;29;20075;-65
2022/04/12 07:14:17;;;;;;;12.45;9.48;;;8.70;99.90;;;;;;4822887;29;20070;-66
2022/04/12 07:16:42;;;;;;;14.55;10.10;;;8.70;99.90;;;;;;4821817;29;20507;-66
2022/04/12 07:19:08;;;;;;;11.43;9.32;;;8.80;99.90;;;;;;4823946;29;20062;-66
2022/04/12 07:21:34;;;;;;;12.02;9.82;;;8.90;99.90;;;;;;4825343;29;20122;-66
2022/04/12 07:24:00;;;;;;;15.73;10.15;;;8.90;99.90;;;;;;4825295;29;20062;-67
2022/04/12 07:26:26;;;;;;;12.55;9.38;;;9.10;99.90;;;;;;4808951;29;20058;-66
2022/04/12 07:28:52;;;;;;;13.50;9.68;;;9.20;99.90;;;;;;4808670;29;20065;-66
2022/04/12 07:31:17;;;;;;;14.35;9.93;;;9.30;99.90;;;;;;4809081;29;20084;-65
2022/04/12 07:33:43;;;;;;;12.65;9.38;;;9.50;99.90;;;;;;4809123;29;20102;-66
2022/04/12 07:36:09;;;;;;;10.70;8.70;;;9.60;99.90;;;;;;4825015;29;20057;-66
2022/04/12 07:38:34;;;;;;;12.27;9.02;;;9.90;99.90;;;;;;4824982;29;20059;-66
2022/04/12 07:41:00;;;;;;;11.70;8.93;;;10.00;99.90;;;;;;4808531;29;20104;-68
2022/04/12 07:43:25;;;;;;;12.07;9.18;;;10.20;99.90;;;;;;4822819;29;20050;-66
2022/04/12 07:45:51;;;;;;;13.77;8.88;;;10.30;99.90;;;;;;4821551;29;20457;-68
2022/04/12 07:48:16;;;;;;;13.48;9.25;;;10.40;99.90;;;;;;4823684;29;20054;-66
2022/04/12 07:50:42;;;;;;;15.00;9.57;;;10.60;99.90;;;;;;4823787;29;20061;-66
2022/04/12 07:53:08;;;;;;;13.05;9.50;;;10.70;99.90;;;;;;4823795;29;20047;-67
2022/04/12 07:55:34;;;;;;;12.93;9.32;;;10.80;99.90;;;;;;4814823;29;20560;-67
2022/04/12 07:57:59;;;;;;;10.15;8.25;;;10.90;99.90;;;;;;4807456;29;20057;-66
2022/04/12 08:00:25;;;;;;;13.73;9.88;;;11.00;99.90;;;;;;4810690;29;20054;-65
2022/04/12 08:02:51;;;;;;;11.25;9.18;;;11.10;99.90;;;;;;4808873;29;20062;-65
2022/04/12 08:05:17;;;;;;;11.48;8.82;;;11.20;99.90;;;;;;4819300;29;20048;-66
2022/04/12 08:07:48;;;;;;;10.43;8.80;;;11.30;99.90;;;;;;4807294;29;20119;-68
2022/04/12 08:10:18;;;;;;;10.93;9.18;;;11.40;99.90;;;;;;4807299;29;20054;-68
2022/04/12 08:12:45;;;;;;;10.60;8.23;;;11.60;99.90;;;;;;4823531;29;20062;-68
2022/04/12 08:15:12;;;;;;;11.73;8.57;;;11.70;99.90;;;;;;4805816;29;20071;-66
2022/04/12 08:17:38;;;;;;;10.73;8.82;;;11.80;99.90;;;;;;4805558;29;20055;-67
2022/04/12 08:20:05;;;;;;;11.10;8.60;;;11.90;99.90;;;;;;4805499;29;20129;-66
2022/04/12 08:22:32;;;;;;;10.05;8.40;;;12.00;99.90;;;;;;4789967;29;20065;-67
2022/04/12 08:24:58;;;;;;;11.20;8.25;;;12.10;99.90;;;;;;4821695;29;20095;-66
2022/04/12 08:27:24;;;;;;;10.98;8.55;;;12.30;99.90;;;;;;4807885;29;20146;-66
2022/04/12 08:29:50;;;;;;;12.60;8.63;;;12.30;99.90;;;;;;4824357;29;20097;-67
2022/04/12 08:32:16;;;;;;;11.30;7.97;;;12.40;99.90;;;;;;4823272;29;20133;-67
2022/04/12 08:34:42;;;;;;;12.75;8.63;;;12.50;99.90;;;;;;4823726;29;20059;-67
2022/04/12 08:37:08;;;;;;;10.43;8.15;;;12.70;99.90;;;;;;4824380;29;20419;-66
2022/04/12 08:39:33;;;;;;;10.45;8.45;;;12.90;99.90;;;;;;4815046;29;20058;-68
2022/04/12 08:42:01;;;;;;;13.25;8.88;;;13.00;99.90;;;;;;4807731;29;20106;-66
2022/04/12 08:44:27;;;;;;;11.05;8.40;;;13.10;95.50;;;;;;4824442;29;20061;-69
2022/04/12 08:46:56;;;;;;;10.38;8.60;;;13.20;99.70;;;;;;4807591;29;20439;-66
2022/04/12 08:49:23;;;;;;;11.15;8.55;;;13.30;97.50;;;;;;4823963;29;20496;-67
2022/04/12 08:51:49;;;;;;;10.05;8.20;;;13.40;89.70;;;;;;4822986;29;20066;-67
2022/04/12 08:54:16;;;;;;;11.32;8.88;;;13.50;91.30;;;;;;4814997;29;20127;-68
2022/04/12 08:56:45;;;;;;;12.45;9.25;;;13.60;89.80;;;;;;4804279;29;20055;-66
2022/04/12 08:59:11;;;;;;;11.48;8.90;;;13.70;90.70;;;;;;4805681;29;20500;-68
2022/04/12 09:01:38;;;;;;;9.98;8.45;;;13.80;90.70;;;;;;4809647;29;20091;-66
2022/04/12 09:04:04;;;;;;;10.27;8.48;;;13.90;83.90;;;;;;4806997;29;20129;-67
2022/04/12 09:06:29;;;;;;;11.25;8.43;;;14.00;82.10;;;;;;4807663;29;20153;-66
2022/04/12 09:08:55;;;;;;;9.93;8.30;;;14.00;80.40;;;;;;4822740;29;20045;-67
2022/04/12 09:11:22;;;;;;;10.65;8.27;;;14.10;78.10;;;;;;4823191;29;20172;-67
2022/04/12 09:13:59;;;;;;;9.73;7.60;;;14.20;79.40;;;;;;4807202;29;20063;-66
2022/04/12 09:16:25;;;;;;;13.63;8.30;;;14.30;75.60;;;;;;4804149;29;20058;-67
2022/04/12 09:18:50;;;;;;;10.48;8.38;;;14.40;74.40;;;;;;4807064;29;20393;-67
2022/04/12 09:21:21;;;;;;;10.55;8.18;;;14.40;74.10;;;;;;4822723;29;20055;-68
2022/04/12 09:23:52;;;;;;;11.23;8.40;;;14.50;76.50;;;;;;4823821;29;20122;-67
2022/04/12 09:26:23;;;;;;;11.18;8.23;;;14.70;78.10;;;;;;4810380;29;20083;-69
2022/04/12 09:28:50;;;;;;;10.32;9.05;;;14.90;80.10;;;;;;4822432;29;20137;-68
2022/04/12 09:31:17;;;;;;;10.02;8.18;;;15.00;77.30;;;;;;4806305;29;20129;-67
2022/04/12 09:33:44;;;;;;;10.85;7.75;;;14.90;73.90;;;;;;4823177;29;20393;-67
2022/04/12 09:36:11;;;;;;;11.25;8.38;;;14.90;72.70;;;;;;4806675;29;20102;-67
2022/04/12 09:38:38;;;;;;;12.48;7.43;;;15.10;73.60;;;;;;4807159;29;20058;-67
2022/04/12 09:41:14;;;;;;;11.95;7.90;;;15.10;71.70;;;;;;4806892;29;20058;-67
2022/04/12 09:44:07;;;;;;;8.55;7.65;;;15.20;71.00;;;;;;4806507;29;20065;-67
2022/04/12 09:46:34;;;;;;;9.60;7.63;;;15.30;71.80;;;;;;4806752;29;20419;-68
2022/04/12 09:49:00;;;;;;;8.43;7.53;;;15.40;73.50;;;;;;4806678;29;20552;-67
2022/04/12 09:51:25;;;;;;;10.30;7.55;;;15.50;72.20;;;;;;4806933;29;20463;-66
2022/04/12 09:53:51;;;;;;;10.20;7.75;;;15.50;71.80;;;;;;4807225;29;20082;-66
2022/04/12 09:56:23;;;;;;;10.18;7.85;;;15.60;71.30;;;;;;4806652;29;20172;-66
2022/04/12 09:58:51;;;;;;;9.88;7.63;;;15.70;70.80;;;;;;4806536;29;20043;-67
2022/04/12 10:01:18;;;;;;;11.43;7.38;;;15.80;72.60;;;;;;4804501;29;20059;-67
2022/04/12 10:03:47;;;;;;;9.88;7.57;;;16.00;70.70;;;;;;4806772;29;20051;-66
2022/04/12 10:06:23;;;;;;;9.30;6.93;;;16.00;70.10;;;;;;4822734;29;20053;-68
2022/04/12 10:08:55;;;;;;;8.38;7.35;;;16.10;69.70;;;;;;4800025;29;20076;-67
2022/04/12 10:11:21;;;;;;;9.33;7.57;;;16.20;69.90;;;;;;4803314;29;20087;-67
2022/04/12 10:13:48;;;;;;;8.50;6.95;;;16.20;70.90;;;;;;4808878;29;20763;-67
2022/04/12 10:16:16;;;;;;;10.65;7.90;;;16.20;69.60;;;;;;4810073;29;20046;-66
2022/04/12 10:18:43;;;;;;;10.27;7.57;;;16.20;71.60;;;;;;4808945;29;20058;-67
2022/04/12 10:21:11;;;;;;;9.82;7.45;;;16.30;71.90;;;;;;4805501;29;20507;-67
2022/04/12 10:23:38;;;;;;;8.57;7.47;;;16.40;72.50;;;;;;4805230;29;20132;-69
2022/04/12 10:26:06;;;;;;;8.55;7.65;;;16.50;70.60;;;;;;4807930;29;20047;-67
2022/04/12 10:28:32;;;;;;;9.10;7.35;;;16.60;71.40;;;;;;4807437;29;20103;-67
2022/04/12 10:31:17;;;;;;;10.10;7.55;;;16.70;70.80;;;;;;4792032;29;20058;-67
2022/04/12 10:33:51;;;;;;;11.05;8.63;;;16.80;69.70;;;;;;4788599;29;20079;-66
2022/04/12 10:36:17;;;;;;;10.35;8.10;;;16.80;69.30;;;;;;4795183;29;20074;-68
2022/04/12 10:38:43;;;;;;;10.32;8.05;;;16.80;70.40;;;;;;4806662;29;20085;-67
2022/04/12 10:41:14;;;;;;;10.60;8.45;;;16.90;69.90;;;;;;4790918;29;20756;-67
2022/04/12 10:43:40;;;;;;;11.60;7.72;;;17.00;69.70;;;;;;4803698;29;20446;-66
2022/04/12 10:46:08;;;;;;;8.88;7.70;;;17.10;69.70;;;;;;4792137;29;20053;-66
2022/04/12 10:48:34;;;;;;;9.18;7.50;;;17.20;69.30;;;;;;4791643;29;20489;-66
2022/04/12 10:51:02;;;;;;;8.30;7.35;;;17.30;69.10;;;;;;4791657;29;20549;-66
2022/04/12 10:53:36;;;;;;;12.82;8.07;;;17.40;68.50;;;;;;4807955;29;20050;-68
2022/04/12 10:56:10;;;;;;;8.27;7.28;;;17.40;67.10;;;;;;4807200;29;20512;-66
2022/04/12 10:58:37;;;;;;;8.60;7.70;;;17.50;68.30;;;;;;4795003;29;20042;-67
2022/04/12 11:01:04;;;;;;;8.32;7.30;;;17.50;69.00;;;;;;4809452;29;20055;-68
2022/04/12 11:03:42;;;;;;;10.70;7.78;;;17.80;67.60;;;;;;4809679;29;20082;-66
2022/04/12 11:06:21;;;;;;;9.40;7.35;;;17.60;65.70;;;;;;4809730;29;20069;-66
2022/04/12 11:08:49;;;;;;;10.18;7.65;;;17.60;66.90;;;;;;4825562;29;20137;-68
2022/04/12 11:11:23;;;;;;;11.38;8.45;;;17.60;67.70;;;;;;4809993;29;20453;-68
2022/04/12 11:13:51;;;;;;;9.25;7.90;;;17.70;67.50;;;;;;4817096;29;20047;-68
2022/04/12 11:16:19;;;;;;;10.93;8.18;;;17.80;67.50;;;;;;4790861;29;20053;-68
2022/04/12 11:18:56;;;;;;;13.57;7.90;;;17.90;66.70;;;;;;4791167;29;20520;-69
2022/04/12 11:21:24;;;;;;;8.55;7.65;;;17.90;66.30;;;;;;4805489;29;20350;-68
2022/04/12 11:24:04;;;;;;;9.73;8.73;;;17.90;66.30;;;;;;4796725;29;20058;-67
2022/04/12 11:26:49;;;;;;;12.00;8.25;;;17.90;66.70;;;;;;4822581;29;20059;-66
2022/04/12 11:29:18;;;;;;;9.70;7.80;;;17.90;65.50;;;;;;4825523;29;20046;-68
2022/04/12 11:31:53;;;;;;;9.23;7.78;;;17.90;66.10;;;;;;4825752;29;20424;-68
2022/04/12 11:34:20;;;;;;;11.05;9.02;;;17.80;64.80;;;;;;4809525;29;20360;-66
2022/04/12 11:36:54;;;;;;;10.38;8.40;;;17.80;65.70;;;;;;4824965;29;20070;-68
2022/04/12 11:39:23;;;;;;;10.73;8.48;;;17.80;65.40;;;;;;4809245;29;20442;-66
2022/04/12 11:41:49;;;;;;;12.63;8.73;;;17.80;65.50;;;;;;4807941;29;20165;-68
2022/04/12 11:44:19;;;;;;;11.07;8.95;;;17.80;64.80;;;;;;4823649;29;20133;-67
2022/04/12 11:46:45;;;;;;;12.00;8.75;;;17.90;65.70;;;;;;4808393;29;20050;-67
2022/04/12 11:49:13;;;;;;;10.85;7.82;;;18.00;65.80;;;;;;4808919;29;20058;-66
2022/04/12 11:51:48;;;;;;;10.48;8.77;;;18.20;66.30;;;;;;4808283;29;20165;-68
2022/04/12 11:54:37;;;;;;;12.07;8.57;;;18.30;65.90;;;;;;4824887;29;20056;-67
2022/04/12 11:57:05;;;;;;;10.35;8.25;;;18.40;64.70;;;;;;4824251;29;20062;-68
2022/04/12 11:59:36;;;;;;;10.45;7.32;;;18.40;66.20;;;;;;4825438;29;20061;-67
2022/04/12 12:02:06;;;;;;;14.38;8.50;;;18.50;66.50;;;;;;4823724;29;20123;-66
2022/04/12 12:04:35;;;;;;;10.75;8.18;;;18.60;66.40;;;;;;4823536;29;20058;-67
2022/04/12 12:07:05;;;;;;;13.40;8.68;;;18.80;66.20;;;;;;4794874;29;20050;-68
2022/04/12 12:09:32;;;;;;;11.38;8.48;;;19.00;65.40;;;;;;4790061;29;20138;-67
2022/04/12 12:12:06;;;;;;;12.50;8.77;;;19.00;65.00;;;;;;4775013;29;20061;-67
2022/04/12 12:14:32;;;;;;;13.73;8.85;;;19.10;64.20;;;;;;4790750;29;20449;-68
2022/04/12 12:17:04;;;;;;;11.23;8.23;;;19.20;63.60;;;;;;4796486;29;20077;-67
2022/04/12 12:19:33;;;;;;;10.75;8.95;;;19.30;63.40;;;;;;4823366;29;20050;-67
2022/04/12 12:22:02;;;;;;;10.48;8.27;;;19.40;64.20;;;;;;4823166;29;20058;-67
2022/04/12 12:24:29;;;;;;;13.40;9.07;;;19.50;64.40;;;;;;4824620;29;20137;-67
2022/04/12 12:26:57;;;;;;;12.40;8.75;;;19.60;64.10;;;;;;4823106;29;20050;-67
2022/04/12 12:29:26;;;;;;;11.27;8.70;;;19.70;63.80;;;;;;4823723;29;20074;-66
2022/04/12 12:31:58;;;;;;;11.00;8.82;;;19.60;62.00;;;;;;4821188;29;20054;-67
2022/04/12 12:34:32;;;;;;;10.85;8.52;;;19.60;62.80;;;;;;4808172;29;20092;-67
2022/04/12 12:37:05;;;;;;;11.63;8.55;;;19.70;63.10;;;;;;4807856;29;20085;-67
2022/04/12 12:39:36;;;;;;;10.15;8.77;;;19.80;63.70;;;;;;4824017;29;20503;-68
2022/04/12 12:42:03;;;;;;;11.55;8.90;;;20.00;63.20;;;;;;4823001;29;20610;-67